createdAt,value
2022-09-07T00:00:52.249Z,38.53
2022-09-07T00:05:55.293Z,21.40
2022-09-07T00:11:00.505Z,30.20
2022-09-07T00:16:08.137Z,70.77
2022-09-07T00:21:12.662Z,33.87
2022-09-07T00:26:18.349Z,49.47
2022-09-07T00:31:24.503Z,20.83
2022-09-07T00:36:27.980Z,27.10
2022-09-07T00:41:31.049Z,31.70
2022-09-07T00:46:36.806Z,34.80
2022-09-07T00:51:44.487Z,23.10
2022-09-07T00:56:52.234Z,31.37
2022-09-07T01:01:57.003Z,34.13
2022-09-07T01:07:00.621Z,49.00
2022-09-07T01:12:04.759Z,48.10
2022-09-07T01:17:18.010Z,24.50
2022-09-07T01:22:42.791Z,21.43
2022-09-07T01:28:13.421Z,32.80
2022-09-07T01:33:44.736Z,15.77
2022-09-07T01:38:52.352Z,20.00
2022-09-07T01:44:03.450Z,20.53
2022-09-07T01:49:12.430Z,35.90
2022-09-07T01:54:22.474Z,19.30
2022-09-07T01:59:31.749Z,22.93
2022-09-07T02:04:39.453Z,19.10
2022-09-07T02:09:48.496Z,34.70
2022-09-07T02:14:55.699Z,29.07
2022-09-07T02:20:05.920Z,34.90
2022-09-07T02:25:12.350Z,19.63
2022-09-07T02:30:17.652Z,29.70
2022-09-07T02:35:20.684Z,23.70
2022-09-07T02:40:23.637Z,17.77
2022-09-07T02:45:34.800Z,17.57
2022-09-07T02:50:51.086Z,15.30
2022-09-07T02:56:06.275Z,17.33
2022-09-07T03:01:18.043Z,13.33
2022-09-07T03:06:27.697Z,17.40
2022-09-07T03:11:31.066Z,17.27
2022-09-07T03:16:35.413Z,19.40
2022-09-07T03:21:38.522Z,21.60
2022-09-07T03:26:42.848Z,21.63
2022-09-07T03:31:47.537Z,19.90
2022-09-07T03:36:50.519Z,21.53
2022-09-07T03:41:53.493Z,38.80
2022-09-07T03:46:57.830Z,20.70
2022-09-07T03:52:00.848Z,22.17
2022-09-07T03:57:03.866Z,19.47
2022-09-07T04:02:08.314Z,22.80
2022-09-07T04:07:11.383Z,15.90
2022-09-07T04:12:14.401Z,16.00
2022-09-07T04:17:18.760Z,16.37
2022-09-07T04:22:21.747Z,22.77
2022-09-07T04:27:24.783Z,14.20
2022-09-07T04:32:29.131Z,17.40
2022-09-07T04:37:32.136Z,17.60
2022-09-07T04:42:35.205Z,18.70
2022-09-07T04:47:39.572Z,19.03
2022-09-07T04:52:42.553Z,18.10
2022-09-07T04:57:45.548Z,21.30
2022-09-07T05:02:49.930Z,15.70
2022-09-07T05:07:52.968Z,15.70
2022-09-07T05:12:55.956Z,20.73
2022-09-07T05:18:00.296Z,23.27
2022-09-07T05:23:03.313Z,22.70
2022-09-07T05:28:06.283Z,29.70
2022-09-07T05:33:10.643Z,28.63
2022-09-07T05:38:13.671Z,20.77
2022-09-07T05:43:16.749Z,20.80
2022-09-07T05:48:21.610Z,20.00
2022-09-07T05:53:24.768Z,19.93
2022-09-07T05:58:28.108Z,19.03
2022-09-07T06:03:32.548Z,21.27
2022-09-07T06:08:37.209Z,20.40
2022-09-07T06:13:40.517Z,20.67
2022-09-07T06:18:46.454Z,19.57
2022-09-07T06:23:50.727Z,17.97
2022-09-07T06:28:57.647Z,22.63
2022-09-07T06:34:02.487Z,19.60
2022-09-07T06:39:05.495Z,22.43
2022-09-07T06:44:08.651Z,23.40
2022-09-07T06:49:13.014Z,18.83
2022-09-07T06:59:39.507Z,25.30
2022-09-07T07:04:43.900Z,18.90
2022-09-07T07:09:46.892Z,19.10
2022-09-07T07:14:49.863Z,21.33
2022-09-07T07:19:54.322Z,25.60
2022-09-07T07:24:57.388Z,23.33
2022-09-07T07:30:00.373Z,21.23
2022-09-07T07:35:05.485Z,22.80
2022-09-07T07:40:14.524Z,25.07
2022-09-07T07:50:42.610Z,22.80
2022-09-07T07:55:45.678Z,26.00
2022-09-07T08:00:56.626Z,26.30
2022-09-07T08:06:08.009Z,18.50
2022-09-07T08:11:12.343Z,22.37
2022-09-07T08:16:15.388Z,17.33
2022-09-07T08:21:19.790Z,17.37
2022-09-07T08:26:22.781Z,16.37
2022-09-07T08:31:25.758Z,18.00
2022-09-07T08:36:31.798Z,16.07
2022-09-07T08:41:57.596Z,15.90
2022-09-07T08:47:06.956Z,16.43
2022-09-07T08:52:17.074Z,16.60
2022-09-07T08:57:27.547Z,18.73
2022-09-07T09:02:35.151Z,15.38
2022-09-07T09:07:49.257Z,15.80
2022-09-07T09:13:05.240Z,14.48
2022-09-07T09:18:25.841Z,13.98
2022-09-07T09:23:35.591Z,14.55
2022-09-07T09:28:40.048Z,14.98
2022-09-07T09:33:43.048Z,15.18
2022-09-07T09:38:47.365Z,15.13
2022-09-07T09:43:55.441Z,12.43
2022-09-07T09:49:00.673Z,13.85
2022-09-07T09:54:08.692Z,13.00
2022-09-07T10:04:45.609Z,12.77
2022-09-07T10:09:53.102Z,11.25
2022-09-07T10:14:57.536Z,12.63
2022-09-07T10:20:03.685Z,10.68
2022-09-07T10:25:32.275Z,12.43
2022-09-07T10:30:47.257Z,10.98
2022-09-07T10:35:54.935Z,12.52
2022-09-07T10:41:04.166Z,12.18
2022-09-07T10:51:57.978Z,11.68
2022-09-07T10:57:13.256Z,13.43
2022-09-07T11:02:22.194Z,13.82
2022-09-07T11:07:41.895Z,13.77
2022-09-07T11:12:47.083Z,13.32
2022-09-07T11:17:53.803Z,12.55
2022-09-07T11:23:07.969Z,13.48
2022-09-07T11:28:18.331Z,13.13
2022-09-07T11:33:26.523Z,13.60
2022-09-07T11:38:35.138Z,12.65
2022-09-07T11:43:44.636Z,11.68
2022-09-07T11:48:51.848Z,12.35
2022-09-07T11:53:58.244Z,10.25
2022-09-07T11:59:24.323Z,11.48
2022-09-07T12:04:54.159Z,10.30
2022-09-07T12:10:32.400Z,10.00
2022-09-07T12:15:49.285Z,13.85
2022-09-07T12:20:52.376Z,10.52
2022-09-07T12:26:33.591Z,10.77
2022-09-07T12:31:57.851Z,12.77
2022-09-07T12:37:03.724Z,12.10
2022-09-07T12:42:38.177Z,12.98
2022-09-07T12:47:43.249Z,11.55
2022-09-07T12:52:49.785Z,15.57
2022-09-07T12:58:00.269Z,15.50
2022-09-07T13:03:52.190Z,13.98
2022-09-07T13:09:05.839Z,17.00
2022-09-07T13:14:21.004Z,16.00
2022-09-07T13:19:57.315Z,21.65
2022-09-07T13:25:03.320Z,19.20
2022-09-07T13:30:24.130Z,16.10
2022-09-07T13:35:28.419Z,15.80
2022-09-07T13:40:35.657Z,10.30
2022-09-07T13:45:49.225Z,7.03
2022-09-07T13:51:00.180Z,8.07
2022-09-07T13:56:19.961Z,7.38
2022-09-07T14:01:25.550Z,8.70
2022-09-07T14:06:33.733Z,6.80
2022-09-07T14:11:43.609Z,9.50
2022-09-07T14:16:49.953Z,12.38
2022-09-07T14:21:58.102Z,4.75
2022-09-07T14:27:03.160Z,6.38
2022-09-07T14:32:15.857Z,7.65
2022-09-07T14:37:21.414Z,9.35
2022-09-07T14:42:25.964Z,9.38
2022-09-07T14:47:30.621Z,7.50
2022-09-07T14:52:42.374Z,9.52
2022-09-07T14:57:48.372Z,11.23
2022-09-07T15:02:51.308Z,10.30
2022-09-07T15:07:56.856Z,12.40
2022-09-07T15:13:02.221Z,9.15
2022-09-07T15:18:09.049Z,11.85
2022-09-07T15:23:13.814Z,10.75
2022-09-07T15:33:49.255Z,16.98
2022-09-07T15:38:59.895Z,18.85
2022-09-07T15:44:05.143Z,17.77
2022-09-07T15:49:08.373Z,18.15
2022-09-07T15:54:13.071Z,18.98
2022-09-07T15:59:17.952Z,20.27
2022-09-07T16:04:23.850Z,22.05
2022-09-07T16:09:27.326Z,23.27
2022-09-07T16:14:35.075Z,23.02
2022-09-07T16:19:40.914Z,20.92
2022-09-07T16:24:44.324Z,23.42
2022-09-07T16:29:49.404Z,14.90
2022-09-07T16:34:52.376Z,15.10
2022-09-07T16:39:56.660Z,13.93
2022-09-07T16:50:23.958Z,18.33
2022-09-07T16:55:27.082Z,14.53
2022-09-07T17:00:33.903Z,15.02
2022-09-07T17:05:40.115Z,14.23
2022-09-07T17:10:43.140Z,16.80
2022-09-07T17:15:47.484Z,12.93
2022-09-07T17:20:56.671Z,16.00
2022-09-07T17:26:06.431Z,16.10
2022-09-07T17:32:23.765Z,16.10
2022-09-07T17:36:35.602Z,14.57
2022-09-07T17:41:38.577Z,16.20
2022-09-07T17:46:43.047Z,15.20
2022-09-07T17:51:46.610Z,14.47
2022-09-07T17:56:49.597Z,17.00
2022-09-07T18:01:54.715Z,15.20
2022-09-07T18:06:57.908Z,13.87
2022-09-07T18:12:00.857Z,15.10
2022-09-07T18:17:06.137Z,18.27
2022-09-07T18:22:09.406Z,16.60
2022-09-07T18:27:12.331Z,15.90
2022-09-07T18:32:17.685Z,16.00
2022-09-07T18:37:20.844Z,18.03
2022-09-07T18:42:23.820Z,16.47
2022-09-07T18:47:29.516Z,16.03
2022-09-07T18:57:55.911Z,15.23
2022-09-07T19:03:00.293Z,15.47
2022-09-07T19:08:03.913Z,15.57
2022-09-07T19:13:06.961Z,20.10
2022-09-07T19:18:11.869Z,24.83
2022-09-07T19:23:14.888Z,12.97
2022-09-07T19:28:19.128Z,14.20
2022-09-07T19:33:23.703Z,16.23
2022-09-07T19:38:26.677Z,16.90
2022-09-07T19:43:33.004Z,16.70
2022-09-07T19:48:38.162Z,16.97
2022-09-07T19:53:43.646Z,15.93
2022-09-07T19:58:48.492Z,16.30
2022-09-07T20:11:03.466Z,18.03
2022-09-07T20:16:08.530Z,17.97
2022-09-07T20:21:13.594Z,15.30
2022-09-07T20:26:20.334Z,13.13
2022-09-07T20:31:23.946Z,17.37
2022-09-07T20:36:26.861Z,16.50
2022-09-07T20:41:34.009Z,14.33
2022-09-07T20:46:37.336Z,12.90
2022-09-07T20:51:41.007Z,15.10
2022-09-07T20:56:45.289Z,11.57
2022-09-07T21:01:48.865Z,18.43
2022-09-07T21:06:51.774Z,13.80
2022-09-07T21:11:57.239Z,13.00
2022-09-07T21:17:00.238Z,13.13
2022-09-07T21:22:03.182Z,18.20
2022-09-07T21:27:07.985Z,16.20
2022-09-07T21:32:10.922Z,13.63
2022-09-07T21:37:15.004Z,13.77
2022-09-07T21:42:19.332Z,20.27
2022-09-07T21:47:22.405Z,15.97
2022-09-07T21:52:25.328Z,13.83
2022-09-07T21:57:29.647Z,14.70
2022-09-07T22:02:32.542Z,13.93
2022-09-07T22:07:35.602Z,12.10
2022-09-07T22:12:39.884Z,13.50
2022-09-07T22:17:46.165Z,15.00
2022-09-07T22:22:49.393Z,15.90
2022-09-07T22:27:54.118Z,15.70
2022-09-07T22:32:57.080Z,16.83
2022-09-07T22:38:00.042Z,14.17
2022-09-07T22:43:04.301Z,13.10
2022-09-07T22:48:07.223Z,14.83
2022-09-07T22:53:10.155Z,13.63
2022-09-07T22:58:14.421Z,15.97
2022-09-07T23:03:17.416Z,14.50
2022-09-07T23:08:20.354Z,14.10
2022-09-07T23:13:24.628Z,14.20
2022-09-07T23:18:27.566Z,12.60
2022-09-07T23:23:44.914Z,13.40
2022-09-07T23:28:52.134Z,13.40
2022-09-07T23:33:55.144Z,19.17
2022-09-07T23:38:59.760Z,17.57
2022-09-07T23:44:04.816Z,18.33
2022-09-07T23:49:07.701Z,16.60
2022-09-07T23:54:10.650Z,15.83
2022-09-07T23:59:14.970Z,17.27
